Wetterdaten: Woche 19.05.14 - 25.05.14 (KW21)
Datum Zeit Temperatur Luftfeuchte Luftdruck Niederschlag Windrichtung Sonnenschein Solar Wind
19.05.2014 00:00 10,5 C 90 % 1008,6 hPa 0,0 l/m NO 0,00 h 0 W/m 5,6 km/h (1 Bft)
19.05.2014 01:00 9,6 C 92 % 1008,5 hPa 0,0 l/m NO 0,00 h 0 W/m 2,3 km/h (1 Bft)
19.05.2014 02:00 8,8 C 95 % 1008,3 hPa 0,0 l/m N 0,00 h 0 W/m 1,7 km/h (1 Bft)
19.05.2014 03:00 8,3 C 96 % 1008,2 hPa 0,0 l/m NO 0,00 h 0 W/m 2,0 km/h (1 Bft)
19.05.2014 04:00 7,9 C 96 % 1008,0 hPa 0,0 l/m NO 0,00 h 0 W/m 3,3 km/h (1 Bft)
19.05.2014 05:00 8,2 C 97 % 1008,1 hPa 0,0 l/m N 0,00 h 7 W/m 0,9 km/h (0 Bft)
19.05.2014 06:00 8,2 C 97 % 1008,1 hPa 0,0 l/m N 0,00 h 27 W/m 0,0 km/h (0 Bft)
19.05.2014 07:00 9,1 C 96 % 1008,3 hPa 0,0 l/m N 0,42 h 128 W/m 0,8 km/h (0 Bft)
19.05.2014 08:00 12,2 C 88 % 1008,2 hPa 0,0 l/m NO 1,00 h 342 W/m 2,4 km/h (1 Bft)
19.05.2014 09:00 15,5 C 77 % 1008,0 hPa 0,0 l/m NO 1,00 h 520 W/m 4,3 km/h (1 Bft)
19.05.2014 10:00 18,0 C 64 % 1007,9 hPa 0,0 l/m SO 0,25 h 362 W/m 8,3 km/h (2 Bft)
19.05.2014 11:00 18,9 C 59 % 1007,8 hPa 0,0 l/m S-SW 0,42 h 508 W/m 9,0 km/h (2 Bft)
19.05.2014 12:00 21,1 C 44 % 1007,6 hPa 0,0 l/m W-SW 1,00 h 903 W/m 14,1 km/h (3 Bft)
19.05.2014 13:00 22,1 C 39 % 1007,1 hPa 0,0 l/m SW 1,00 h 884 W/m 14,8 km/h (3 Bft)
19.05.2014 14:00 23,3 C 35 % 1006,7 hPa 0,0 l/m SW 1,00 h 902 W/m 16,8 km/h (3 Bft)
19.05.2014 15:00 23,8 C 30 % 1006,6 hPa 0,0 l/m SW 1,00 h 813 W/m 21,0 km/h (4 Bft)
19.05.2014 16:00 23,9 C 29 % 1006,6 hPa 0,0 l/m SW 1,00 h 679 W/m 16,6 km/h (3 Bft)
19.05.2014 17:00 23,7 C 29 % 1006,6 hPa 0,0 l/m SW 1,00 h 534 W/m 15,7 km/h (3 Bft)
19.05.2014 18:00 23,1 C 31 % 1006,6 hPa 0,0 l/m SW 1,00 h 366 W/m 13,4 km/h (3 Bft)
19.05.2014 19:00 21,0 C 37 % 1006,8 hPa 0,0 l/m SW 1,00 h 184 W/m 9,5 km/h (2 Bft)
19.05.2014 20:00 18,1 C 44 % 1007,1 hPa 0,0 l/m N 0,00 h 16 W/m 1,3 km/h (1 Bft)
19.05.2014 21:00 14,8 C 60 % 1007,8 hPa 0,0 l/m N 0,00 h 0 W/m 0,0 km/h (0 Bft)
19.05.2014 22:00 12,8 C 68 % 1008,3 hPa 0,0 l/m N 0,00 h 0 W/m 0,0 km/h (0 Bft)
19.05.2014 23:00 11,9 C 72 % 1008,5 hPa 0,0 l/m N 0,00 h 0 W/m 0,4 km/h (0 Bft)
20.05.2014 00:00 10,6 C 75 % 1008,9 hPa 0,0 l/m N 0,00 h 0 W/m 0,0 km/h (0 Bft)
20.05.2014 01:00 9,5 C 78 % 1008,9 hPa 0,0 l/m N 0,00 h 0 W/m 0,0 km/h (0 Bft)
20.05.2014 02:00 8,5 C 82 % 1009,1 hPa 0,0 l/m N 0,00 h 0 W/m 0,0 km/h (0 Bft)
20.05.2014 03:00 8,0 C 84 % 1009,2 hPa 0,0 l/m N 0,00 h 0 W/m 0,1 km/h (0 Bft)
20.05.2014 04:00 7,5 C 85 % 1009,7 hPa 0,0 l/m N 0,00 h 0 W/m 0,0 km/h (0 Bft)
20.05.2014 05:00 7,1 C 87 % 1009,8 hPa 0,0 l/m N 0,00 h 7 W/m 0,0 km/h (0 Bft)
20.05.2014 06:00 7,6 C 87 % 1010,0 hPa 0,0 l/m N 0,00 h 45 W/m 0,0 km/h (0 Bft)
20.05.2014 07:00 10,9 C 76 % 1010,4 hPa 0,0 l/m SW 0,83 h 193 W/m 2,3 km/h (1 Bft)
20.05.2014 08:00 14,3 C 61 % 1010,8 hPa 0,0 l/m N 1,00 h 361 W/m 0,7 km/h (0 Bft)
20.05.2014 09:00 17,7 C 51 % 1011,1 hPa 0,0 l/m SW 1,00 h 527 W/m 4,5 km/h (1 Bft)
20.05.2014 10:00 20,1 C 46 % 1011,1 hPa 0,0 l/m S-SW 1,00 h 651 W/m 11,3 km/h (2 Bft)
20.05.2014 11:00 21,7 C 41 % 1011,0 hPa 0,0 l/m SW 1,00 h 786 W/m 9,1 km/h (2 Bft)
20.05.2014 12:00 23,1 C 37 % 1010,8 hPa 0,0 l/m O-SO 1,00 h 861 W/m 9,1 km/h (2 Bft)
20.05.2014 13:00 24,3 C 33 % 1010,8 hPa 0,0 l/m O 1,00 h 875 W/m 14,8 km/h (3 Bft)
20.05.2014 14:00 25,0 C 33 % 1010,7 hPa 0,0 l/m O-NO 1,00 h 812 W/m 10,2 km/h (2 Bft)
20.05.2014 15:00 25,6 C 30 % 1010,6 hPa 0,0 l/m O 1,00 h 828 W/m 11,8 km/h (2 Bft)
20.05.2014 16:00 25,6 C 31 % 1010,6 hPa 0,0 l/m SO 0,92 h 522 W/m 11,0 km/h (2 Bft)
20.05.2014 17:00 24,7 C 33 % 1010,6 hPa 0,0 l/m S-SO 0,08 h 213 W/m 6,6 km/h (2 Bft)
20.05.2014 18:00 22,9 C 42 % 1010,6 hPa 0,0 l/m SW 0,00 h 106 W/m 4,0 km/h (1 Bft)
20.05.2014 19:00 22,4 C 49 % 1010,7 hPa 0,0 l/m N 0,75 h 141 W/m 0,9 km/h (0 Bft)
20.05.2014 20:00 19,9 C 64 % 1010,6 hPa 0,0 l/m N 0,00 h 21 W/m 0,4 km/h (0 Bft)
20.05.2014 21:00 16,6 C 70 % 1010,9 hPa 0,0 l/m N 0,00 h 0 W/m 0,1 km/h (0 Bft)
20.05.2014 22:00 15,1 C 74 % 1011,3 hPa 0,0 l/m N 0,00 h 0 W/m 0,7 km/h (0 Bft)
20.05.2014 23:00 13,7 C 80 % 1011,6 hPa 0,0 l/m N 0,00 h 0 W/m 0,0 km/h (0 Bft)
21.05.2014 00:00 12,8 C 84 % 1011,7 hPa 0,0 l/m N 0,00 h 0 W/m 0,1 km/h (0 Bft)
21.05.2014 01:00 11,9 C 87 % 1011,7 hPa 0,0 l/m N 0,00 h 0 W/m 0,1 km/h (0 Bft)
21.05.2014 02:00 11,4 C 87 % 1011,7 hPa 0,0 l/m N 0,00 h 0 W/m 0,5 km/h (0 Bft)
21.05.2014 03:00 10,6 C 87 % 1011,9 hPa 0,0 l/m N 0,00 h 0 W/m 0,0 km/h (0 Bft)
21.05.2014 04:00 9,8 C 90 % 1011,9 hPa 0,0 l/m N 0,00 h 0 W/m 0,1 km/h (0 Bft)
21.05.2014 05:00 9,4 C 90 % 1012,0 hPa 0,0 l/m N 0,00 h 7 W/m 1,2 km/h (1 Bft)
21.05.2014 06:00 9,9 C 89 % 1011,9 hPa 0,0 l/m N 0,00 h 43 W/m 0,0 km/h (0 Bft)
21.05.2014 07:00 12,8 C 82 % 1011,9 hPa 0,0 l/m N 0,83 h 191 W/m 0,0 km/h (0 Bft)
21.05.2014 08:00 16,0 C 65 % 1011,9 hPa 0,0 l/m N 1,00 h 358 W/m 1,1 km/h (0 Bft)
21.05.2014 09:00 18,8 C 51 % 1011,7 hPa 0,0 l/m SW 1,00 h 524 W/m 3,1 km/h (1 Bft)
21.05.2014 10:00 21,0 C 47 % 1011,3 hPa 0,0 l/m O-NO 1,00 h 672 W/m 5,1 km/h (1 Bft)
21.05.2014 11:00 23,0 C 41 % 1010,6 hPa 0,0 l/m O 1,00 h 784 W/m 10,5 km/h (2 Bft)
21.05.2014 12:00 24,7 C 39 % 1009,9 hPa 0,0 l/m O 1,00 h 853 W/m 17,2 km/h (3 Bft)
21.05.2014 13:00 25,9 C 37 % 1009,2 hPa 0,0 l/m O 1,00 h 813 W/m 16,1 km/h (3 Bft)
21.05.2014 14:00 26,9 C 34 % 1008,5 hPa 0,0 l/m O-SO 1,00 h 841 W/m 14,0 km/h (3 Bft)
21.05.2014 15:00 27,7 C 32 % 1008,0 hPa 0,0 l/m O-SO 1,00 h 706 W/m 14,2 km/h (3 Bft)
21.05.2014 16:00 27,9 C 33 % 1007,5 hPa 0,0 l/m SO 1,00 h 607 W/m 10,2 km/h (2 Bft)
21.05.2014 17:00 27,4 C 34 % 1007,3 hPa 0,0 l/m O-NO 0,83 h 394 W/m 6,6 km/h (2 Bft)
21.05.2014 18:00 26,4 C 41 % 1006,9 hPa 0,0 l/m O-NO 0,75 h 231 W/m 2,8 km/h (1 Bft)
21.05.2014 19:00 24,7 C 50 % 1006,6 hPa 0,0 l/m O 0,50 h 124 W/m 3,1 km/h (1 Bft)
21.05.2014 20:00 22,8 C 46 % 1006,5 hPa 0,0 l/m S-SW 0,00 h 20 W/m 7,1 km/h (2 Bft)
21.05.2014 21:00 19,2 C 55 % 1006,7 hPa 0,0 l/m N 0,00 h 0 W/m 0,1 km/h (0 Bft)
21.05.2014 22:00 17,6 C 60 % 1006,9 hPa 0,0 l/m S-SW 0,00 h 0 W/m 4,4 km/h (1 Bft)
21.05.2014 23:00 17,7 C 55 % 1006,8 hPa 0,0 l/m S-SW 0,00 h 0 W/m 3,7 km/h (1 Bft)
22.05.2014 00:00 15,6 C 65 % 1006,5 hPa 0,0 l/m N 0,00 h 0 W/m 0,4 km/h (0 Bft)
22.05.2014 01:00 14,1 C 73 % 1006,3 hPa 0,0 l/m N 0,00 h 0 W/m 0,3 km/h (0 Bft)
22.05.2014 02:00 14,0 C 73 % 1006,0 hPa 0,0 l/m S-SW 0,00 h 0 W/m 2,5 km/h (1 Bft)
22.05.2014 03:00 15,3 C 65 % 1005,7 hPa 0,0 l/m S-SW 0,00 h 0 W/m 6,4 km/h (2 Bft)
22.05.2014 04:00 17,3 C 57 % 1005,7 hPa 0,0 l/m SW 0,00 h 0 W/m 16,2 km/h (3 Bft)
22.05.2014 05:00 19,4 C 50 % 1005,7 hPa 0,0 l/m SW 0,00 h 8 W/m 22,9 km/h (4 Bft)
22.05.2014 06:00 18,3 C 54 % 1006,0 hPa 0,0 l/m N-NW 0,00 h 42 W/m 15,0 km/h (3 Bft)
22.05.2014 07:00 16,2 C 63 % 1006,5 hPa 0,0 l/m N-NW 0,42 h 155 W/m 7,6 km/h (2 Bft)
22.05.2014 08:00 18,3 C 60 % 1006,7 hPa 0,0 l/m O-NO 1,00 h 310 W/m 7,8 km/h (2 Bft)
22.05.2014 09:00 20,5 C 56 % 1006,6 hPa 0,0 l/m O-NO 1,00 h 482 W/m 9,4 km/h (2 Bft)
22.05.2014 10:00 22,6 C 51 % 1006,3 hPa 0,0 l/m O-NO 1,00 h 646 W/m 8,4 km/h (2 Bft)
22.05.2014 11:00 24,9 C 43 % 1005,8 hPa 0,0 l/m SW 0,83 h 621 W/m 12,3 km/h (3 Bft)
22.05.2014 12:00 25,6 C 40 % 1005,4 hPa 0,0 l/m SW 0,33 h 417 W/m 18,8 km/h (3 Bft)
22.05.2014 13:00 25,8 C 38 % 1005,5 hPa 0,0 l/m SW 0,58 h 575 W/m 25,5 km/h (4 Bft)
22.05.2014 14:00 26,9 C 34 % 1005,0 hPa 0,0 l/m SW 0,83 h 561 W/m 26,0 km/h (4 Bft)
22.05.2014 15:00 26,8 C 34 % 1004,4 hPa 0,0 l/m SW 0,42 h 410 W/m 19,4 km/h (3 Bft)
22.05.2014 16:00 26,6 C 35 % 1004,3 hPa 0,0 l/m SW 0,42 h 340 W/m 19,2 km/h (3 Bft)
22.05.2014 17:00 25,4 C 39 % 1004,1 hPa 0,0 l/m W-SW 0,00 h 89 W/m 11,8 km/h (2 Bft)
22.05.2014 18:00 24,2 C 43 % 1004,3 hPa 0,0 l/m W-SW 0,00 h 44 W/m 7,5 km/h (2 Bft)
22.05.2014 19:00 22,9 C 46 % 1004,7 hPa 0,0 l/m W 0,00 h 28 W/m 12,6 km/h (3 Bft)
22.05.2014 20:00 21,5 C 55 % 1004,9 hPa 0,0 l/m W-NW 0,00 h 8 W/m 20,6 km/h (4 Bft)
22.05.2014 21:00 17,8 C 74 % 1005,8 hPa 0,0 l/m N 0,00 h 0 W/m 15,7 km/h (3 Bft)
22.05.2014 22:00 16,0 C 79 % 1007,7 hPa 0,0 l/m N-NW 0,00 h 0 W/m 4,8 km/h (1 Bft)
22.05.2014 23:00 15,2 C 81 % 1008,4 hPa 0,0 l/m N-NW 0,00 h 0 W/m 6,5 km/h (2 Bft)
23.05.2014 00:00 14,4 C 81 % 1008,6 hPa 0,0 l/m N-NW 0,00 h 0 W/m 4,8 km/h (1 Bft)
23.05.2014 01:00 13,9 C 82 % 1008,5 hPa 0,0 l/m N 0,00 h 0 W/m 0,9 km/h (0 Bft)
23.05.2014 02:00 13,8 C 83 % 1007,9 hPa 0,0 l/m N 0,00 h 0 W/m 1,5 km/h (1 Bft)
23.05.2014 03:00 13,6 C 83 % 1007,2 hPa 0,0 l/m N-NW 0,00 h 0 W/m 2,8 km/h (1 Bft)
23.05.2014 04:00 13,2 C 79 % 1006,4 hPa 0,0 l/m W-SW 0,00 h 0 W/m 6,6 km/h (2 Bft)
23.05.2014 05:00 12,7 C 82 % 1006,4 hPa 0,0 l/m W-SW 0,00 h 7 W/m 8,6 km/h (2 Bft)
23.05.2014 06:00 12,4 C 86 % 1006,5 hPa 0,0 l/m W-SW 0,08 h 31 W/m 5,1 km/h (1 Bft)
23.05.2014 07:00 12,1 C 90 % 1007,3 hPa 0,8 l/m W-SW 0,00 h 38 W/m 8,3 km/h (2 Bft)
23.05.2014 08:00 11,5 C 94 % 1008,6 hPa 1,0 l/m W 0,00 h 39 W/m 11,8 km/h (2 Bft)
23.05.2014 09:00 11,3 C 94 % 1010,0 hPa 0,6 l/m W 0,00 h 126 W/m 21,6 km/h (4 Bft)
23.05.2014 10:00 11,7 C 92 % 1010,4 hPa 0,0 l/m W-SW 0,17 h 307 W/m 23,2 km/h (4 Bft)
23.05.2014 11:00 13,7 C 83 % 1009,9 hPa 0,0 l/m SW 0,92 h 787 W/m 14,6 km/h (3 Bft)
23.05.2014 12:00 15,4 C 75 % 1009,4 hPa 0,0 l/m SW 0,75 h 724 W/m 14,1 km/h (3 Bft)
23.05.2014 13:00 17,0 C 68 % 1009,3 hPa 0,0 l/m S-SW 0,92 h 914 W/m 11,0 km/h (2 Bft)
23.05.2014 14:00 18,4 C 62 % 1009,3 hPa 0,0 l/m S-SO 0,75 h 735 W/m 9,9 km/h (2 Bft)
23.05.2014 15:00 19,1 C 57 % 1009,0 hPa 0,0 l/m SW 1,00 h 800 W/m 8,9 km/h (2 Bft)
23.05.2014 16:00 20,5 C 51 % 1008,8 hPa 0,0 l/m SO 1,00 h 682 W/m 9,8 km/h (2 Bft)
23.05.2014 17:00 20,9 C 47 % 1008,5 hPa 0,0 l/m O-SO 1,00 h 535 W/m 9,7 km/h (2 Bft)
23.05.2014 18:00 20,6 C 47 % 1008,1 hPa 0,0 l/m O-SO 1,00 h 372 W/m 11,8 km/h (2 Bft)
23.05.2014 19:00 19,7 C 48 % 1007,9 hPa 0,0 l/m O-SO 1,00 h 195 W/m 10,5 km/h (2 Bft)
23.05.2014 20:00 18,2 C 57 % 1008,0 hPa 0,0 l/m O 0,00 h 20 W/m 9,8 km/h (2 Bft)
23.05.2014 21:00 16,6 C 65 % 1008,1 hPa 0,0 l/m O 0,00 h 5 W/m 5,1 km/h (1 Bft)
23.05.2014 22:00 15,0 C 73 % 1008,5 hPa 0,0 l/m O 0,00 h 0 W/m 3,9 km/h (1 Bft)
23.05.2014 23:00 14,2 C 78 % 1008,7 hPa 0,0 l/m O 0,00 h 0 W/m 7,1 km/h (2 Bft)
24.05.2014 00:00 13,4 C 83 % 1008,8 hPa 0,0 l/m O-NO 0,00 h 0 W/m 4,5 km/h (1 Bft)
24.05.2014 01:00 12,5 C 87 % 1008,6 hPa 0,0 l/m O-NO 0,00 h 0 W/m 4,0 km/h (1 Bft)
24.05.2014 02:00 11,5 C 92 % 1008,5 hPa 0,0 l/m O-NO 0,00 h 0 W/m 4,0 km/h (1 Bft)
24.05.2014 03:00 10,9 C 94 % 1008,5 hPa 0,0 l/m N 0,00 h 0 W/m 2,1 km/h (1 Bft)
24.05.2014 04:00 10,1 C 95 % 1008,9 hPa 0,0 l/m O-NO 0,00 h 0 W/m 3,3 km/h (1 Bft)
24.05.2014 05:00 9,7 C 96 % 1010,0 hPa 0,0 l/m O-NO 0,08 h 10 W/m 0,7 km/h (0 Bft)
24.05.2014 06:00 9,7 C 96 % 1010,9 hPa 0,0 l/m O-NO 0,00 h 47 W/m 1,6 km/h (1 Bft)
24.05.2014 07:00 11,1 C 96 % 1011,6 hPa 0,0 l/m O-NO 0,00 h 52 W/m 2,0 km/h (1 Bft)
24.05.2014 08:00 12,4 C 91 % 1012,7 hPa 0,0 l/m N-NW 0,00 h 51 W/m 6,8 km/h (2 Bft)
24.05.2014 09:00 12,9 C 87 % 1013,4 hPa 0,0 l/m W-NW 0,00 h 94 W/m 10,3 km/h (2 Bft)
24.05.2014 10:00 12,8 C 86 % 1014,0 hPa 0,0 l/m W 0,00 h 91 W/m 14,9 km/h (3 Bft)
24.05.2014 11:00 12,5 C 92 % 1014,8 hPa 1,2 l/m W-SW 0,33 h 363 W/m 10,3 km/h (2 Bft)
24.05.2014 12:00 13,6 C 82 % 1015,0 hPa 0,0 l/m NW 0,00 h 279 W/m 11,7 km/h (2 Bft)
24.05.2014 13:00 14,9 C 76 % 1014,8 hPa 0,0 l/m N 0,00 h 300 W/m 6,6 km/h (2 Bft)
24.05.2014 14:00 16,2 C 68 % 1014,5 hPa 0,0 l/m N 0,25 h 387 W/m 5,9 km/h (2 Bft)
24.05.2014 15:00 16,5 C 64 % 1014,4 hPa 0,0 l/m N 0,00 h 242 W/m 5,7 km/h (1 Bft)
24.05.2014 16:00 18,2 C 57 % 1014,1 hPa 0,0 l/m W-NW 0,83 h 675 W/m 11,7 km/h (2 Bft)
24.05.2014 17:00 19,0 C 53 % 1014,1 hPa 0,0 l/m W 1,00 h 554 W/m 9,1 km/h (2 Bft)
24.05.2014 18:00 19,0 C 49 % 1014,1 hPa 0,0 l/m NW 1,00 h 388 W/m 10,6 km/h (2 Bft)
24.05.2014 19:00 18,0 C 52 % 1014,3 hPa 0,0 l/m NW 1,00 h 205 W/m 4,7 km/h (1 Bft)
24.05.2014 20:00 15,2 C 67 % 1014,8 hPa 0,0 l/m N 0,00 h 20 W/m 1,1 km/h (0 Bft)
24.05.2014 21:00 12,6 C 78 % 1015,6 hPa 0,0 l/m N 0,00 h 5 W/m 0,4 km/h (0 Bft)
24.05.2014 22:00 11,6 C 82 % 1016,4 hPa 0,0 l/m NW 0,00 h 0 W/m 1,2 km/h (1 Bft)
24.05.2014 23:00 10,8 C 86 % 1016,9 hPa 0,0 l/m N 0,00 h 0 W/m 0,1 km/h (0 Bft)
25.05.2014 00:00 10,2 C 89 % 1017,3 hPa 0,0 l/m NW 0,00 h 0 W/m 4,8 km/h (1 Bft)
25.05.2014 01:00 10,4 C 87 % 1017,1 hPa 0,0 l/m NW 0,00 h 0 W/m 5,1 km/h (1 Bft)
25.05.2014 02:00 10,1 C 90 % 1017,2 hPa 0,0 l/m NW 0,00 h 0 W/m 3,5 km/h (1 Bft)
25.05.2014 03:00 10,2 C 90 % 1017,1 hPa 0,0 l/m NW 0,00 h 0 W/m 5,1 km/h (1 Bft)
25.05.2014 04:00 10,2 C 91 % 1017,2 hPa 0,0 l/m NW 0,00 h 0 W/m 6,9 km/h (2 Bft)
25.05.2014 05:00 10,4 C 89 % 1017,3 hPa 0,0 l/m N 0,00 h 7 W/m 6,2 km/h (2 Bft)
25.05.2014 06:00 10,7 C 89 % 1017,6 hPa 0,0 l/m N-NO 0,00 h 23 W/m 6,5 km/h (2 Bft)
25.05.2014 07:00 11,8 C 85 % 1017,8 hPa 0,0 l/m NO 0,17 h 120 W/m 8,0 km/h (2 Bft)
25.05.2014 08:00 13,5 C 79 % 1017,7 hPa 0,0 l/m O-NO 0,83 h 319 W/m 13,0 km/h (3 Bft)
25.05.2014 09:00 15,6 C 69 % 1017,3 hPa 0,0 l/m O-NO 1,00 h 501 W/m 16,5 km/h (3 Bft)
25.05.2014 10:00 17,3 C 61 % 1016,7 hPa 0,0 l/m O 1,00 h 643 W/m 20,2 km/h (4 Bft)
25.05.2014 11:00 18,9 C 52 % 1016,5 hPa 0,0 l/m O-NO 1,00 h 743 W/m 25,5 km/h (4 Bft)
25.05.2014 12:00 19,8 C 49 % 1016,0 hPa 0,0 l/m O-NO 0,92 h 768 W/m 26,5 km/h (4 Bft)
25.05.2014 13:00 20,9 C 47 % 1015,3 hPa 0,0 l/m O-SO 0,92 h 845 W/m 24,9 km/h (4 Bft)
25.05.2014 14:00 21,3 C 47 % 1014,5 hPa 0,0 l/m O 0,83 h 700 W/m 24,5 km/h (4 Bft)
25.05.2014 15:00 22,2 C 45 % 1013,8 hPa 0,0 l/m NO 1,00 h 767 W/m 22,5 km/h (4 Bft)
25.05.2014 16:00 22,9 C 44 % 1013,5 hPa 0,0 l/m NO 1,00 h 668 W/m 20,8 km/h (4 Bft)
25.05.2014 17:00 22,8 C 44 % 1013,1 hPa 0,0 l/m NO 0,83 h 473 W/m 19,7 km/h (3 Bft)
25.05.2014 18:00 21,6 C 48 % 1012,7 hPa 0,0 l/m NO 0,33 h 177 W/m 17,3 km/h (3 Bft)
25.05.2014 19:00 20,5 C 51 % 1012,7 hPa 0,0 l/m N-NO 0,00 h 37 W/m 12,9 km/h (3 Bft)
25.05.2014 20:00 19,2 C 54 % 1012,6 hPa 0,0 l/m N-NO 0,00 h 15 W/m 10,6 km/h (2 Bft)
25.05.2014 21:00 18,0 C 58 % 1012,6 hPa 0,0 l/m N 0,00 h 0 W/m 10,3 km/h (2 Bft)
25.05.2014 22:00 16,6 C 68 % 1012,9 hPa 0,0 l/m N-NO 0,00 h 0 W/m 14,8 km/h (3 Bft)
25.05.2014 23:00 14,9 C 76 % 1012,8 hPa 0,0 l/m N 0,00 h 0 W/m 14,2 km/h (3 Bft)
Min-Datum _ 20.05.14 19.05.14 22.05.14 - - - - 19.05.14
_ Min-Zeit 05:50 17:35 17:40 - - - - 01:30
Minimum _ 6,9 C 26 % 1003,9 hPa - - - - 0,0 km/h (0 Bft)
Max-Datum _ 21.05.14 19.05.14 25.05.14 24.05.14 - 19.05.14 24.05.14 22.05.14
_ Max-Zeit 16:00 04:35 07:10 11:20 - 07:20 14:00 04:55
Maximum _ 28,3 C 97 % 1017,9 hPa 1,2 l/m - 0,08 h 1083 W/m 35,4 km/h
SW (5 Bft)
Durchschnitt _ 16,7 C 65 % 1010,0 hPa #3,6 l/m SW #63:20 h 376 W/m 8,2 km/h (2 Bft)